sensor_id;sensor_type;location;lat;lon;timestamp;temperature;humidity
23715;DHT22;12036;50.858;4.472;2022-11-20T00:00:04;4.40;99.90
23715;DHT22;12036;50.858;4.472;2022-11-20T00:02:30;4.40;99.90
23715;DHT22;12036;50.858;4.472;2022-11-20T00:04:55;4.40;99.90
23715;DHT22;12036;50.858;4.472;2022-11-20T00:07:21;4.40;99.90
23715;DHT22;12036;50.858;4.472;2022-11-20T00:09:46;4.40;99.90
23715;DHT22;12036;50.858;4.472;2022-11-20T00:12:12;4.40;99.90
23715;DHT22;12036;50.858;4.472;2022-11-20T00:14:38;4.40;99.90
23715;DHT22;12036;50.858;4.472;2022-11-20T00:17:04;4.40;99.90
23715;DHT22;12036;50.858;4.472;2022-11-20T00:19:30;4.40;99.90
23715;DHT22;12036;50.858;4.472;2022-11-20T00:21:55;4.40;99.90
23715;DHT22;12036;50.858;4.472;2022-11-20T00:24:21;4.40;99.90
23715;DHT22;12036;50.858;4.472;2022-11-20T00:26:46;4.40;99.90
23715;DHT22;12036;50.858;4.472;2022-11-20T00:29:12;4.40;99.90
23715;DHT22;12036;50.858;4.472;2022-11-20T00:31:38;4.40;99.90
23715;DHT22;12036;50.858;4.472;2022-11-20T00:34:03;4.40;99.90
23715;DHT22;12036;50.858;4.472;2022-11-20T00:36:33;4.40;99.90
23715;DHT22;12036;50.858;4.472;2022-11-20T00:38:59;4.40;99.90
23715;DHT22;12036;50.858;4.472;2022-11-20T00:41:26;4.40;99.90
23715;DHT22;12036;50.858;4.472;2022-11-20T00:43:53;4.40;99.90
23715;DHT22;12036;50.858;4.472;2022-11-20T00:46:22;4.30;99.90
23715;DHT22;12036;50.858;4.472;2022-11-20T00:48:47;4.30;99.90
23715;DHT22;12036;50.858;4.472;2022-11-20T00:51:15;4.30;99.90
23715;DHT22;12036;50.858;4.472;2022-11-20T00:53:41;4.30;99.90
23715;DHT22;12036;50.858;4.472;2022-11-20T00:56:11;4.20;99.90
23715;DHT22;12036;50.858;4.472;2022-11-20T00:58:39;4.20;99.90
23715;DHT22;12036;50.858;4.472;2022-11-20T01:01:23;4.20;99.90
23715;DHT22;12036;50.858;4.472;2022-11-20T01:03:50;4.20;99.90
23715;DHT22;12036;50.858;4.472;2022-11-20T01:06:21;4.20;99.90
23715;DHT22;12036;50.858;4.472;2022-11-20T01:08:49;4.20;99.90
23715;DHT22;12036;50.858;4.472;2022-11-20T01:11:18;4.20;99.90
23715;DHT22;12036;50.858;4.472;2022-11-20T01:13:45;4.30;99.90
23715;DHT22;12036;50.858;4.472;2022-11-20T01:18:45;4.20;99.90
23715;DHT22;12036;50.858;4.472;2022-11-20T01:21:16;4.20;99.90
23715;DHT22;12036;50.858;4.472;2022-11-20T01:23:43;4.30;99.90
23715;DHT22;12036;50.858;4.472;2022-11-20T01:26:15;4.30;99.90
23715;DHT22;12036;50.858;4.472;2022-11-20T01:28:42;4.30;99.90
23715;DHT22;12036;50.858;4.472;2022-11-20T01:33:42;4.20;99.90
23715;DHT22;12036;50.858;4.472;2022-11-20T01:36:08;4.20;99.90
23715;DHT22;12036;50.858;4.472;2022-11-20T01:38:34;4.20;99.90
23715;DHT22;12036;50.858;4.472;2022-11-20T01:41:00;4.20;99.90
23715;DHT22;12036;50.858;4.472;2022-11-20T01:43:26;4.20;99.90
23715;DHT22;12036;50.858;4.472;2022-11-20T01:46:02;4.30;99.90
23715;DHT22;12036;50.858;4.472;2022-11-20T01:49:17;4.30;99.90
23715;DHT22;12036;50.858;4.472;2022-11-20T01:51:35;4.30;99.90
23715;DHT22;12036;50.858;4.472;2022-11-20T01:54:06;4.30;99.90
23715;DHT22;12036;50.858;4.472;2022-11-20T01:56:37;4.20;99.90
23715;DHT22;12036;50.858;4.472;2022-11-20T01:59:05;4.20;99.90
23715;DHT22;12036;50.858;4.472;2022-11-20T02:01:33;4.30;99.90
23715;DHT22;12036;50.858;4.472;2022-11-20T02:03:59;4.30;99.90
23715;DHT22;12036;50.858;4.472;2022-11-20T02:06:53;4.30;99.90
23715;DHT22;12036;50.858;4.472;2022-11-20T02:09:16;4.30;99.90
23715;DHT22;12036;50.858;4.472;2022-11-20T02:11:42;4.30;99.90
23715;DHT22;12036;50.858;4.472;2022-11-20T02:14:08;4.30;99.90
23715;DHT22;12036;50.858;4.472;2022-11-20T02:16:37;4.40;99.90
23715;DHT22;12036;50.858;4.472;2022-11-20T02:19:09;4.40;99.90
23715;DHT22;12036;50.858;4.472;2022-11-20T02:22:02;4.40;99.90
23715;DHT22;12036;50.858;4.472;2022-11-20T02:24:31;4.40;99.90
23715;DHT22;12036;50.858;4.472;2022-11-20T02:27:03;4.40;99.90
23715;DHT22;12036;50.858;4.472;2022-11-20T02:29:53;4.40;99.90
23715;DHT22;12036;50.858;4.472;2022-11-20T02:32:26;4.40;99.90
23715;DHT22;12036;50.858;4.472;2022-11-20T02:34:51;4.50;99.90
23715;DHT22;12036;50.858;4.472;2022-11-20T02:37:17;4.40;99.90
23715;DHT22;12036;50.858;4.472;2022-11-20T02:39:46;4.50;99.90
23715;DHT22;12036;50.858;4.472;2022-11-20T02:42:12;4.50;99.90
23715;DHT22;12036;50.858;4.472;2022-11-20T02:44:38;4.50;99.90
23715;DHT22;12036;50.858;4.472;2022-11-20T02:47:03;4.50;99.90
23715;DHT22;12036;50.858;4.472;2022-11-20T02:49:29;4.50;99.90
23715;DHT22;12036;50.858;4.472;2022-11-20T02:51:55;4.50;99.90
23715;DHT22;12036;50.858;4.472;2022-11-20T02:54:20;4.50;99.90
23715;DHT22;12036;50.858;4.472;2022-11-20T02:56:46;4.60;99.90
23715;DHT22;12036;50.858;4.472;2022-11-20T02:59:11;4.60;99.90
23715;DHT22;12036;50.858;4.472;2022-11-20T03:01:37;4.60;99.90
23715;DHT22;12036;50.858;4.472;2022-11-20T03:04:03;4.60;99.90
23715;DHT22;12036;50.858;4.472;2022-11-20T03:06:28;4.70;99.90
23715;DHT22;12036;50.858;4.472;2022-11-20T03:08:54;4.70;99.90
23715;DHT22;12036;50.858;4.472;2022-11-20T03:11:20;4.70;99.90
23715;DHT22;12036;50.858;4.472;2022-11-20T03:13:46;4.70;99.90
23715;DHT22;12036;50.858;4.472;2022-11-20T03:16:20;4.80;99.90
23715;DHT22;12036;50.858;4.472;2022-11-20T03:18:46;4.80;99.90
23715;DHT22;12036;50.858;4.472;2022-11-20T03:21:12;4.80;99.90
23715;DHT22;12036;50.858;4.472;2022-11-20T03:23:39;4.80;99.90
23715;DHT22;12036;50.858;4.472;2022-11-20T03:26:15;4.90;99.90
23715;DHT22;12036;50.858;4.472;2022-11-20T03:28:45;4.90;99.90
23715;DHT22;12036;50.858;4.472;2022-11-20T03:31:13;4.80;99.90
23715;DHT22;12036;50.858;4.472;2022-11-20T03:33:40;4.80;99.90
23715;DHT22;12036;50.858;4.472;2022-11-20T03:36:09;4.80;99.90
23715;DHT22;12036;50.858;4.472;2022-11-20T03:38:36;4.80;99.90
23715;DHT22;12036;50.858;4.472;2022-11-20T03:41:04;4.80;99.90
23715;DHT22;12036;50.858;4.472;2022-11-20T03:43:30;4.80;99.90
23715;DHT22;12036;50.858;4.472;2022-11-20T03:45:56;4.80;99.90
23715;DHT22;12036;50.858;4.472;2022-11-20T03:48:22;4.80;99.90
23715;DHT22;12036;50.858;4.472;2022-11-20T03:50:47;4.80;99.90
23715;DHT22;12036;50.858;4.472;2022-11-20T03:53:14;4.80;99.90
23715;DHT22;12036;50.858;4.472;2022-11-20T03:55:40;4.80;99.90
23715;DHT22;12036;50.858;4.472;2022-11-20T03:58:05;4.90;99.90
23715;DHT22;12036;50.858;4.472;2022-11-20T04:00:31;4.90;99.90
23715;DHT22;12036;50.858;4.472;2022-11-20T04:03:00;4.90;99.90
23715;DHT22;12036;50.858;4.472;2022-11-20T04:05:26;4.80;99.90
23715;DHT22;12036;50.858;4.472;2022-11-20T04:07:52;4.80;99.90
23715;DHT22;12036;50.858;4.472;2022-11-20T04:10:18;4.80;99.90
23715;DHT22;12036;50.858;4.472;2022-11-20T04:12:43;4.70;99.90
23715;DHT22;12036;50.858;4.472;2022-11-20T04:15:09;4.70;99.90
23715;DHT22;12036;50.858;4.472;2022-11-20T04:17:35;4.70;99.90
23715;DHT22;12036;50.858;4.472;2022-11-20T04:20:01;4.70;99.90
23715;DHT22;12036;50.858;4.472;2022-11-20T04:22:27;4.70;99.90
23715;DHT22;12036;50.858;4.472;2022-11-20T04:24:52;4.70;99.90
23715;DHT22;12036;50.858;4.472;2022-11-20T04:27:18;4.70;99.90
23715;DHT22;12036;50.858;4.472;2022-11-20T04:29:44;4.70;99.90
23715;DHT22;12036;50.858;4.472;2022-11-20T04:32:09;4.80;99.90
23715;DHT22;12036;50.858;4.472;2022-11-20T04:34:35;4.80;99.90
23715;DHT22;12036;50.858;4.472;2022-11-20T04:37:01;4.80;99.90
23715;DHT22;12036;50.858;4.472;2022-11-20T04:39:26;4.80;99.90
23715;DHT22;12036;50.858;4.472;2022-11-20T04:41:52;4.90;99.90
23715;DHT22;12036;50.858;4.472;2022-11-20T04:44:37;4.90;99.90
23715;DHT22;12036;50.858;4.472;2022-11-20T04:47:03;5.00;99.90
23715;DHT22;12036;50.858;4.472;2022-11-20T04:49:28;5.00;99.90
23715;DHT22;12036;50.858;4.472;2022-11-20T04:51:54;5.00;99.90
23715;DHT22;12036;50.858;4.472;2022-11-20T04:54:20;5.00;99.90
23715;DHT22;12036;50.858;4.472;2022-11-20T04:56:47;5.10;99.90
23715;DHT22;12036;50.858;4.472;2022-11-20T04:59:13;5.10;99.90
23715;DHT22;12036;50.858;4.472;2022-11-20T05:01:39;5.10;99.90
23715;DHT22;12036;50.858;4.472;2022-11-20T05:04:04;5.20;99.90
23715;DHT22;12036;50.858;4.472;2022-11-20T05:06:31;5.20;99.90
23715;DHT22;12036;50.858;4.472;2022-11-20T05:08:57;5.20;99.90
23715;DHT22;12036;50.858;4.472;2022-11-20T05:11:23;5.20;99.90
23715;DHT22;12036;50.858;4.472;2022-11-20T05:13:50;5.30;99.90
23715;DHT22;12036;50.858;4.472;2022-11-20T05:16:19;5.30;99.90
23715;DHT22;12036;50.858;4.472;2022-11-20T05:18:45;5.30;99.90
23715;DHT22;12036;50.858;4.472;2022-11-20T05:21:12;5.30;99.90
23715;DHT22;12036;50.858;4.472;2022-11-20T05:23:39;5.30;99.90
23715;DHT22;12036;50.858;4.472;2022-11-20T05:26:06;5.30;99.90
23715;DHT22;12036;50.858;4.472;2022-11-20T05:28:32;5.30;99.90
23715;DHT22;12036;50.858;4.472;2022-11-20T05:31:10;5.30;99.90
23715;DHT22;12036;50.858;4.472;2022-11-20T05:33:36;5.30;99.90
23715;DHT22;12036;50.858;4.472;2022-11-20T05:36:03;5.30;99.90
23715;DHT22;12036;50.858;4.472;2022-11-20T05:38:29;5.30;99.90
23715;DHT22;12036;50.858;4.472;2022-11-20T05:40:55;5.30;99.90
23715;DHT22;12036;50.858;4.472;2022-11-20T05:43:20;5.40;99.90
23715;DHT22;12036;50.858;4.472;2022-11-20T05:45:55;5.40;99.90
23715;DHT22;12036;50.858;4.472;2022-11-20T05:48:21;5.40;99.90
23715;DHT22;12036;50.858;4.472;2022-11-20T05:50:47;5.40;99.90
23715;DHT22;12036;50.858;4.472;2022-11-20T05:53:13;5.40;99.90
23715;DHT22;12036;50.858;4.472;2022-11-20T05:55:39;5.40;99.90
23715;DHT22;12036;50.858;4.472;2022-11-20T05:58:04;5.20;99.90
23715;DHT22;12036;50.858;4.472;2022-11-20T06:00:30;5.20;99.90
23715;DHT22;12036;50.858;4.472;2022-11-20T06:02:55;5.10;99.90
23715;DHT22;12036;50.858;4.472;2022-11-20T06:05:21;5.10;99.90
23715;DHT22;12036;50.858;4.472;2022-11-20T06:07:47;5.10;99.90
23715;DHT22;12036;50.858;4.472;2022-11-20T06:10:13;5.10;99.90
23715;DHT22;12036;50.858;4.472;2022-11-20T06:12:38;5.10;99.90
23715;DHT22;12036;50.858;4.472;2022-11-20T06:15:05;5.20;99.90
23715;DHT22;12036;50.858;4.472;2022-11-20T06:17:30;5.20;99.90
23715;DHT22;12036;50.858;4.472;2022-11-20T06:19:56;5.20;99.90
23715;DHT22;12036;50.858;4.472;2022-11-20T06:22:22;5.10;99.90
23715;DHT22;12036;50.858;4.472;2022-11-20T06:24:47;5.20;99.90
23715;DHT22;12036;50.858;4.472;2022-11-20T06:27:13;5.10;99.90
23715;DHT22;12036;50.858;4.472;2022-11-20T06:29:39;5.20;99.90
23715;DHT22;12036;50.858;4.472;2022-11-20T06:32:04;5.20;99.90
23715;DHT22;12036;50.858;4.472;2022-11-20T06:34:30;5.10;99.90
23715;DHT22;12036;50.858;4.472;2022-11-20T06:36:55;5.00;99.90
23715;DHT22;12036;50.858;4.472;2022-11-20T06:39:21;5.00;99.90
23715;DHT22;12036;50.858;4.472;2022-11-20T06:41:46;5.00;99.90
23715;DHT22;12036;50.858;4.472;2022-11-20T06:44:12;5.10;99.90
23715;DHT22;12036;50.858;4.472;2022-11-20T06:46:38;5.00;99.90
23715;DHT22;12036;50.858;4.472;2022-11-20T06:49:03;5.00;99.90
23715;DHT22;12036;50.858;4.472;2022-11-20T06:51:29;5.00;99.90
23715;DHT22;12036;50.858;4.472;2022-11-20T06:53:55;5.00;99.90
23715;DHT22;12036;50.858;4.472;2022-11-20T06:56:20;5.00;99.90
23715;DHT22;12036;50.858;4.472;2022-11-20T06:58:46;5.10;99.90
23715;DHT22;12036;50.858;4.472;2022-11-20T07:01:13;5.20;99.90
23715;DHT22;12036;50.858;4.472;2022-11-20T07:03:40;5.30;99.90
23715;DHT22;12036;50.858;4.472;2022-11-20T07:06:06;5.30;99.90
23715;DHT22;12036;50.858;4.472;2022-11-20T07:08:32;5.30;99.90
23715;DHT22;12036;50.858;4.472;2022-11-20T07:11:03;5.30;99.90
23715;DHT22;12036;50.858;4.472;2022-11-20T07:13:30;5.30;99.90
23715;DHT22;12036;50.858;4.472;2022-11-20T07:16:00;5.30;99.90
23715;DHT22;12036;50.858;4.472;2022-11-20T07:18:26;5.30;99.90
23715;DHT22;12036;50.858;4.472;2022-11-20T07:20:52;5.20;99.90
23715;DHT22;12036;50.858;4.472;2022-11-20T07:23:17;5.20;99.90
23715;DHT22;12036;50.858;4.472;2022-11-20T07:25:43;5.20;99.90
23715;DHT22;12036;50.858;4.472;2022-11-20T07:28:08;5.30;99.90
23715;DHT22;12036;50.858;4.472;2022-11-20T07:30:36;5.40;99.90
23715;DHT22;12036;50.858;4.472;2022-11-20T07:33:02;5.50;99.90
23715;DHT22;12036;50.858;4.472;2022-11-20T07:35:27;5.50;99.90
23715;DHT22;12036;50.858;4.472;2022-11-20T07:37:53;5.60;99.90
23715;DHT22;12036;50.858;4.472;2022-11-20T07:40:19;5.70;99.90
23715;DHT22;12036;50.858;4.472;2022-11-20T07:42:52;5.80;99.90
23715;DHT22;12036;50.858;4.472;2022-11-20T07:45:19;5.90;99.90
23715;DHT22;12036;50.858;4.472;2022-11-20T07:47:45;5.90;99.90
23715;DHT22;12036;50.858;4.472;2022-11-20T07:50:11;6.00;99.90
23715;DHT22;12036;50.858;4.472;2022-11-20T07:52:37;6.00;99.90
23715;DHT22;12036;50.858;4.472;2022-11-20T07:55:03;6.10;99.90
23715;DHT22;12036;50.858;4.472;2022-11-20T07:57:28;6.10;99.90
23715;DHT22;12036;50.858;4.472;2022-11-20T07:59:54;6.10;99.90
23715;DHT22;12036;50.858;4.472;2022-11-20T08:02:20;6.20;99.90
23715;DHT22;12036;50.858;4.472;2022-11-20T08:04:45;6.10;99.90
23715;DHT22;12036;50.858;4.472;2022-11-20T08:07:11;6.10;99.90
23715;DHT22;12036;50.858;4.472;2022-11-20T08:09:36;6.20;99.90
23715;DHT22;12036;50.858;4.472;2022-11-20T08:12:02;6.20;99.90
23715;DHT22;12036;50.858;4.472;2022-11-20T08:14:46;6.00;99.90
23715;DHT22;12036;50.858;4.472;2022-11-20T08:17:11;6.10;99.90
23715;DHT22;12036;50.858;4.472;2022-11-20T08:19:37;6.10;99.90
23715;DHT22;12036;50.858;4.472;2022-11-20T08:22:03;6.20;99.90
23715;DHT22;12036;50.858;4.472;2022-11-20T08:24:28;6.20;99.90
23715;DHT22;12036;50.858;4.472;2022-11-20T08:26:57;6.20;99.90
23715;DHT22;12036;50.858;4.472;2022-11-20T08:29:23;6.30;99.90
23715;DHT22;12036;50.858;4.472;2022-11-20T08:31:49;6.30;99.90
23715;DHT22;12036;50.858;4.472;2022-11-20T08:34:15;6.40;99.90
23715;DHT22;12036;50.858;4.472;2022-11-20T08:36:40;6.50;99.90
23715;DHT22;12036;50.858;4.472;2022-11-20T08:39:06;6.60;99.90
23715;DHT22;12036;50.858;4.472;2022-11-20T08:41:31;6.60;99.90
23715;DHT22;12036;50.858;4.472;2022-11-20T08:44:06;6.60;99.90
23715;DHT22;12036;50.858;4.472;2022-11-20T08:46:37;6.70;99.90
23715;DHT22;12036;50.858;4.472;2022-11-20T08:49:08;6.80;99.90
23715;DHT22;12036;50.858;4.472;2022-11-20T08:51:34;6.80;99.90
23715;DHT22;12036;50.858;4.472;2022-11-20T08:54:00;6.80;99.90
23715;DHT22;12036;50.858;4.472;2022-11-20T08:56:26;6.80;99.90
23715;DHT22;12036;50.858;4.472;2022-11-20T08:58:52;6.90;99.90
23715;DHT22;12036;50.858;4.472;2022-11-20T09:01:19;6.80;99.90
23715;DHT22;12036;50.858;4.472;2022-11-20T09:03:45;6.90;99.90
23715;DHT22;12036;50.858;4.472;2022-11-20T09:06:11;6.90;99.90
23715;DHT22;12036;50.858;4.472;2022-11-20T09:08:37;7.00;99.90
23715;DHT22;12036;50.858;4.472;2022-11-20T09:11:03;7.00;99.90
23715;DHT22;12036;50.858;4.472;2022-11-20T09:13:29;7.10;99.90
23715;DHT22;12036;50.858;4.472;2022-11-20T09:16:00;7.10;99.90
23715;DHT22;12036;50.858;4.472;2022-11-20T09:18:27;7.20;99.90
23715;DHT22;12036;50.858;4.472;2022-11-20T09:21:00;7.30;99.90
23715;DHT22;12036;50.858;4.472;2022-11-20T09:23:27;7.20;99.90
23715;DHT22;12036;50.858;4.472;2022-11-20T09:25:56;7.30;99.90
23715;DHT22;12036;50.858;4.472;2022-11-20T09:28:25;7.40;99.90
23715;DHT22;12036;50.858;4.472;2022-11-20T09:30:51;7.40;99.90
23715;DHT22;12036;50.858;4.472;2022-11-20T09:33:17;7.50;99.90
23715;DHT22;12036;50.858;4.472;2022-11-20T09:35:43;7.60;99.90
23715;DHT22;12036;50.858;4.472;2022-11-20T09:38:09;7.60;99.90
23715;DHT22;12036;50.858;4.472;2022-11-20T09:40:39;7.70;99.90
23715;DHT22;12036;50.858;4.472;2022-11-20T09:51:26;7.70;99.90
23715;DHT22;12036;50.858;4.472;2022-11-20T09:54:09;7.80;99.90
23715;DHT22;12036;50.858;4.472;2022-11-20T09:56:42;7.80;99.90
23715;DHT22;12036;50.858;4.472;2022-11-20T09:59:38;7.90;99.90
23715;DHT22;12036;50.858;4.472;2022-11-20T10:02:06;8.00;99.90
23715;DHT22;12036;50.858;4.472;2022-11-20T10:04:39;8.20;99.90
23715;DHT22;12036;50.858;4.472;2022-11-20T10:07:15;8.20;99.90
23715;DHT22;12036;50.858;4.472;2022-11-20T10:09:50;8.20;99.90
23715;DHT22;12036;50.858;4.472;2022-11-20T10:26:22;8.50;99.90
23715;DHT22;12036;50.858;4.472;2022-11-20T10:31:40;8.70;99.90
23715;DHT22;12036;50.858;4.472;2022-11-20T10:34:28;8.90;99.90
23715;DHT22;12036;50.858;4.472;2022-11-20T10:37:05;9.00;99.90
23715;DHT22;12036;50.858;4.472;2022-11-20T10:39:42;9.00;99.90
23715;DHT22;12036;50.858;4.472;2022-11-20T10:42:14;9.00;99.90
23715;DHT22;12036;50.858;4.472;2022-11-20T10:44:47;9.10;99.90
23715;DHT22;12036;50.858;4.472;2022-11-20T10:47:28;8.90;99.90
23715;DHT22;12036;50.858;4.472;2022-11-20T10:49:57;8.80;99.90
23715;DHT22;12036;50.858;4.472;2022-11-20T10:52:35;8.70;99.90
23715;DHT22;12036;50.858;4.472;2022-11-20T10:58:13;9.10;99.90
23715;DHT22;12036;50.858;4.472;2022-11-20T11:00:39;9.20;99.90
23715;DHT22;12036;50.858;4.472;2022-11-20T11:03:23;9.30;99.90
23715;DHT22;12036;50.858;4.472;2022-11-20T11:05:56;9.30;99.90
23715;DHT22;12036;50.858;4.472;2022-11-20T11:08:28;9.20;99.90
23715;DHT22;12036;50.858;4.472;2022-11-20T11:11:00;9.10;99.90
23715;DHT22;12036;50.858;4.472;2022-11-20T11:13:29;9.10;99.90
23715;DHT22;12036;50.858;4.472;2022-11-20T11:15:56;9.10;99.90
23715;DHT22;12036;50.858;4.472;2022-11-20T11:18:31;9.10;99.90
23715;DHT22;12036;50.858;4.472;2022-11-20T11:20:59;9.20;99.90
23715;DHT22;12036;50.858;4.472;2022-11-20T11:23:40;9.10;99.90
23715;DHT22;12036;50.858;4.472;2022-11-20T11:26:21;9.10;99.90
23715;DHT22;12036;50.858;4.472;2022-11-20T11:28:59;9.30;99.90
23715;DHT22;12036;50.858;4.472;2022-11-20T11:31:34;9.30;99.90
23715;DHT22;12036;50.858;4.472;2022-11-20T11:34:10;9.30;99.90
23715;DHT22;12036;50.858;4.472;2022-11-20T11:36:37;9.20;99.90
23715;DHT22;12036;50.858;4.472;2022-11-20T11:39:05;9.30;99.90
23715;DHT22;12036;50.858;4.472;2022-11-20T11:41:33;9.10;99.90
23715;DHT22;12036;50.858;4.472;2022-11-20T11:44:19;9.20;99.90
23715;DHT22;12036;50.858;4.472;2022-11-20T11:47:05;9.10;99.90
23715;DHT22;12036;50.858;4.472;2022-11-20T11:49:33;9.10;99.90
23715;DHT22;12036;50.858;4.472;2022-11-20T11:52:35;9.00;99.90
23715;DHT22;12036;50.858;4.472;2022-11-20T11:54:57;9.10;99.90
23715;DHT22;12036;50.858;4.472;2022-11-20T11:57:40;8.90;99.90
23715;DHT22;12036;50.858;4.472;2022-11-20T12:00:16;8.80;99.90
23715;DHT22;12036;50.858;4.472;2022-11-20T12:08:13;8.60;99.90
23715;DHT22;12036;50.858;4.472;2022-11-20T12:10:50;8.40;99.90
23715;DHT22;12036;50.858;4.472;2022-11-20T12:13:40;8.40;99.90
23715;DHT22;12036;50.858;4.472;2022-11-20T12:16:14;8.30;99.90
23715;DHT22;12036;50.858;4.472;2022-11-20T12:18:41;8.30;99.90
23715;DHT22;12036;50.858;4.472;2022-11-20T12:27:47;8.20;99.90
23715;DHT22;12036;50.858;4.472;2022-11-20T12:37:53;8.00;99.90
23715;DHT22;12036;50.858;4.472;2022-11-20T12:43:49;7.90;99.90
23715;DHT22;12036;50.858;4.472;2022-11-20T12:47:11;8.00;99.90
23715;DHT22;12036;50.858;4.472;2022-11-20T12:49:48;8.00;99.90
23715;DHT22;12036;50.858;4.472;2022-11-20T12:55:14;8.10;99.90
23715;DHT22;12036;50.858;4.472;2022-11-20T12:57:50;8.10;99.90
23715;DHT22;12036;50.858;4.472;2022-11-20T13:00:21;8.10;99.90
23715;DHT22;12036;50.858;4.472;2022-11-20T13:06:10;8.20;99.90
23715;DHT22;12036;50.858;4.472;2022-11-20T13:08:47;8.20;99.90
23715;DHT22;12036;50.858;4.472;2022-11-20T13:11:27;8.20;99.90
23715;DHT22;12036;50.858;4.472;2022-11-20T13:14:15;8.30;99.90
23715;DHT22;12036;50.858;4.472;2022-11-20T13:16:50;8.30;99.90
23715;DHT22;12036;50.858;4.472;2022-11-20T13:19:17;8.40;99.90
23715;DHT22;12036;50.858;4.472;2022-11-20T13:21:48;8.30;99.90
23715;DHT22;12036;50.858;4.472;2022-11-20T13:24:21;8.30;99.90
23715;DHT22;12036;50.858;4.472;2022-11-20T13:27:33;8.20;99.90
23715;DHT22;12036;50.858;4.472;2022-11-20T13:29:36;8.10;99.90
23715;DHT22;12036;50.858;4.472;2022-11-20T13:32:12;8.00;99.90
23715;DHT22;12036;50.858;4.472;2022-11-20T13:34:39;8.00;99.90
23715;DHT22;12036;50.858;4.472;2022-11-20T13:37:04;8.00;99.90
23715;DHT22;12036;50.858;4.472;2022-11-20T13:39:35;8.00;99.90
23715;DHT22;12036;50.858;4.472;2022-11-20T13:44:43;8.20;99.90
23715;DHT22;12036;50.858;4.472;2022-11-20T13:47:46;8.20;99.90
23715;DHT22;12036;50.858;4.472;2022-11-20T13:50:14;8.10;99.90
23715;DHT22;12036;50.858;4.472;2022-11-20T13:55:40;8.10;99.90
23715;DHT22;12036;50.858;4.472;2022-11-20T13:58:18;8.20;99.90
23715;DHT22;12036;50.858;4.472;2022-11-20T14:01:00;8.10;99.90
23715;DHT22;12036;50.858;4.472;2022-11-20T14:03:29;8.20;99.90
23715;DHT22;12036;50.858;4.472;2022-11-20T14:06:04;8.20;99.90
23715;DHT22;12036;50.858;4.472;2022-11-20T14:08:44;8.20;99.90
23715;DHT22;12036;50.858;4.472;2022-11-20T14:11:19;8.20;99.90
23715;DHT22;12036;50.858;4.472;2022-11-20T14:16:27;8.20;99.90
23715;DHT22;12036;50.858;4.472;2022-11-20T14:18:54;8.10;99.90
23715;DHT22;12036;50.858;4.472;2022-11-20T14:21:28;8.10;99.90
23715;DHT22;12036;50.858;4.472;2022-11-20T14:24:09;8.10;99.90
23715;DHT22;12036;50.858;4.472;2022-11-20T14:26:37;8.10;99.90
23715;DHT22;12036;50.858;4.472;2022-11-20T14:29:04;8.10;99.90
23715;DHT22;12036;50.858;4.472;2022-11-20T14:31:30;8.20;99.90
23715;DHT22;12036;50.858;4.472;2022-11-20T14:33:55;8.20;99.90
23715;DHT22;12036;50.858;4.472;2022-11-20T14:36:23;8.20;99.90
23715;DHT22;12036;50.858;4.472;2022-11-20T14:38:51;8.20;99.90
23715;DHT22;12036;50.858;4.472;2022-11-20T14:41:22;8.30;99.90
23715;DHT22;12036;50.858;4.472;2022-11-20T14:43:56;8.30;99.90
23715;DHT22;12036;50.858;4.472;2022-11-20T14:46:22;8.20;99.90
23715;DHT22;12036;50.858;4.472;2022-11-20T14:48:55;8.10;99.90
23715;DHT22;12036;50.858;4.472;2022-11-20T14:51:40;8.20;99.90
23715;DHT22;12036;50.858;4.472;2022-11-20T14:54:20;8.30;99.90
23715;DHT22;12036;50.858;4.472;2022-11-20T14:59:34;8.30;99.90
23715;DHT22;12036;50.858;4.472;2022-11-20T15:02:04;8.40;99.90
23715;DHT22;12036;50.858;4.472;2022-11-20T15:04:30;8.40;99.90
23715;DHT22;12036;50.858;4.472;2022-11-20T15:06:58;8.40;99.90
23715;DHT22;12036;50.858;4.472;2022-11-20T15:09:24;8.40;99.90
23715;DHT22;12036;50.858;4.472;2022-11-20T15:11:58;8.40;99.90
23715;DHT22;12036;50.858;4.472;2022-11-20T15:14:25;8.50;99.90
23715;DHT22;12036;50.858;4.472;2022-11-20T15:16:53;8.50;99.90
23715;DHT22;12036;50.858;4.472;2022-11-20T15:19:21;8.60;99.90
23715;DHT22;12036;50.858;4.472;2022-11-20T15:21:48;8.60;99.90
23715;DHT22;12036;50.858;4.472;2022-11-20T15:24:14;8.70;99.90
23715;DHT22;12036;50.858;4.472;2022-11-20T15:26:40;8.70;99.90
23715;DHT22;12036;50.858;4.472;2022-11-20T15:29:14;8.70;99.90
23715;DHT22;12036;50.858;4.472;2022-11-20T15:31:44;8.80;99.90
23715;DHT22;12036;50.858;4.472;2022-11-20T15:34:16;8.80;99.90
23715;DHT22;12036;50.858;4.472;2022-11-20T15:36:43;8.80;99.90
23715;DHT22;12036;50.858;4.472;2022-11-20T15:39:09;8.80;99.90
23715;DHT22;12036;50.858;4.472;2022-11-20T15:41:36;8.90;99.90
23715;DHT22;12036;50.858;4.472;2022-11-20T15:44:03;8.80;99.90
23715;DHT22;12036;50.858;4.472;2022-11-20T15:46:31;8.70;99.90
23715;DHT22;12036;50.858;4.472;2022-11-20T15:49:04;8.80;99.90
23715;DHT22;12036;50.858;4.472;2022-11-20T15:51:38;8.80;99.90
23715;DHT22;12036;50.858;4.472;2022-11-20T15:54:12;8.80;99.90
23715;DHT22;12036;50.858;4.472;2022-11-20T15:56:37;8.90;99.90
23715;DHT22;12036;50.858;4.472;2022-11-20T15:59:03;8.90;99.90
23715;DHT22;12036;50.858;4.472;2022-11-20T16:01:29;8.90;99.90
23715;DHT22;12036;50.858;4.472;2022-11-20T16:03:55;9.00;99.90
23715;DHT22;12036;50.858;4.472;2022-11-20T16:06:21;9.00;99.90
23715;DHT22;12036;50.858;4.472;2022-11-20T16:08:47;9.00;99.90
23715;DHT22;12036;50.858;4.472;2022-11-20T16:11:14;9.10;99.90
23715;DHT22;12036;50.858;4.472;2022-11-20T16:13:40;9.10;99.90
23715;DHT22;12036;50.858;4.472;2022-11-20T16:16:35;9.00;99.90
23715;DHT22;12036;50.858;4.472;2022-11-20T16:19:01;9.10;99.90
23715;DHT22;12036;50.858;4.472;2022-11-20T16:21:27;9.10;99.90
23715;DHT22;12036;50.858;4.472;2022-11-20T16:24:01;9.20;99.90
23715;DHT22;12036;50.858;4.472;2022-11-20T16:26:27;9.20;99.90
23715;DHT22;12036;50.858;4.472;2022-11-20T16:28:53;9.20;99.90
23715;DHT22;12036;50.858;4.472;2022-11-20T16:31:19;9.20;99.90
23715;DHT22;12036;50.858;4.472;2022-11-20T16:33:50;9.10;99.90
23715;DHT22;12036;50.858;4.472;2022-11-20T16:36:16;9.10;99.90
23715;DHT22;12036;50.858;4.472;2022-11-20T16:38:42;9.10;99.90
23715;DHT22;12036;50.858;4.472;2022-11-20T16:41:08;9.10;99.90
23715;DHT22;12036;50.858;4.472;2022-11-20T16:43:48;9.10;99.90
23715;DHT22;12036;50.858;4.472;2022-11-20T16:46:16;9.00;99.90
23715;DHT22;12036;50.858;4.472;2022-11-20T16:48:42;9.00;99.90
23715;DHT22;12036;50.858;4.472;2022-11-20T16:51:09;9.00;99.90
23715;DHT22;12036;50.858;4.472;2022-11-20T16:53:35;8.90;99.90
23715;DHT22;12036;50.858;4.472;2022-11-20T16:56:16;9.10;99.90
23715;DHT22;12036;50.858;4.472;2022-11-20T16:58:43;9.00;99.90
23715;DHT22;12036;50.858;4.472;2022-11-20T17:01:11;9.00;99.90
23715;DHT22;12036;50.858;4.472;2022-11-20T17:03:41;8.90;99.90
23715;DHT22;12036;50.858;4.472;2022-11-20T17:06:17;9.00;99.90
23715;DHT22;12036;50.858;4.472;2022-11-20T17:08:44;9.00;99.90
23715;DHT22;12036;50.858;4.472;2022-11-20T17:11:12;9.00;99.90